Colebrook, New Hampshire
Current Conditions -  °F | °C
As of 8:32 AM on Friday 28 Nov 2014 (Local Time) from KBML Reporting Station
Haze Haze  
Wind Chill: 19°   Ceiling: 4200
Heat Index: 19°   Visibility: 4mi
Dew Point: 17°   Wind: 0mph
Humidity: 92%   Direction: NA
Pressure: 29.99"   Gusts: NA
Location:  44.89°N, 71.48°W
Report Text: KBML 281332Z AUTO 00000KT 4SM BR BKN042 OVC050 M07/M08 A2999 RMK AO2 SNE32 P0000 T10721083
Loading
Personal Weather Stations






























Interactive Weather Map New forecast layout! Learn more

10-Day Weather Forecast

Advertisements
Track Severe Weather on mobile